Pickering, Louisiana
Current Conditions -  °F | °C
As of 7:58 AM on Monday 22 Dec 2014 (Local Time) from KPOE Reporting Station
Moderate Fog Moderate Fog  
Wind Chill: 52°   Ceiling: 200
Heat Index: 52°   Visibility: 0.25mi
Dew Point: 51°   Wind: 6mph
Humidity: 99%   Direction: 140°SE
Pressure: 29.78"   Gusts: NA
Location:  31.2063°N, 93.1344°W
Report Text: KPOE 221358Z AUTO 14005KT 1/4SM FG VV002 11/11 A2978 RMK AO2 SLP087 T01100108 RVRNO
Loading
Personal Weather Stations






























Interactive Weather Map New forecast layout! Learn more

10-Day Weather Forecast

Advertisements
Track Severe Weather on mobile